createdAt,value
2022-11-27T00:00:44.806Z,50.37
2022-11-27T00:03:11.631Z,48.73
2022-11-27T00:05:38.140Z,52.33
2022-11-27T00:08:04.722Z,58.10
2022-11-27T00:10:31.302Z,49.77
2022-11-27T00:12:57.748Z,53.97
2022-11-27T00:15:24.197Z,47.73
2022-11-27T00:17:50.615Z,56.00
2022-11-27T00:20:17.132Z,58.80
2022-11-27T00:22:43.536Z,53.63
2022-11-27T00:25:09.934Z,42.80
2022-11-27T00:27:36.351Z,39.83
2022-11-27T00:30:02.802Z,40.60
2022-11-27T00:32:29.237Z,50.57
2022-11-27T00:34:55.652Z,43.23
2022-11-27T00:37:22.053Z,48.07
2022-11-27T00:39:48.517Z,50.20
2022-11-27T00:42:15.051Z,42.90
2022-11-27T00:44:41.611Z,47.27
2022-11-27T00:47:08.247Z,46.33
2022-11-27T00:49:34.694Z,48.33
2022-11-27T00:52:01.112Z,43.07
2022-11-27T00:54:27.543Z,50.30
2022-11-27T00:56:53.975Z,40.83
2022-11-27T00:59:20.445Z,45.23
2022-11-27T01:01:47.143Z,41.23
2022-11-27T01:04:16.022Z,39.77
2022-11-27T01:06:43.168Z,37.23
2022-11-27T01:09:12.424Z,48.60
2022-11-27T01:11:40.100Z,35.53
2022-11-27T01:14:15.945Z,40.17
2022-11-27T01:16:43.448Z,45.50
2022-11-27T01:19:12.223Z,41.13
2022-11-27T01:21:38.669Z,40.03
2022-11-27T01:24:05.838Z,41.90
2022-11-27T01:26:32.582Z,39.30
2022-11-27T01:28:59.526Z,38.53
2022-11-27T01:31:28.526Z,43.83
2022-11-27T01:33:57.843Z,45.37
2022-11-27T01:36:25.091Z,48.73
2022-11-27T01:38:51.937Z,49.53
2022-11-27T01:41:25.979Z,35.77
2022-11-27T01:43:57.013Z,44.30
2022-11-27T01:46:32.299Z,31.67
2022-11-27T01:49:11.080Z,31.73
2022-11-27T01:52:06.079Z,42.80
2022-11-27T01:54:39.754Z,41.73
2022-11-27T01:57:20.489Z,32.30
2022-11-27T01:59:50.738Z,42.40
2022-11-27T02:02:17.515Z,35.90
2022-11-27T02:04:43.963Z,43.37
2022-11-27T02:07:10.811Z,39.27
2022-11-27T02:09:37.425Z,35.93
2022-11-27T02:12:25.093Z,46.57
2022-11-27T02:15:18.455Z,31.50
2022-11-27T02:18:05.570Z,37.07
2022-11-27T02:20:45.275Z,35.47
2022-11-27T02:23:20.491Z,36.33
2022-11-27T02:26:18.037Z,32.53
2022-11-27T02:29:02.999Z,42.43
2022-11-27T02:31:32.324Z,32.97
2022-11-27T02:34:10.550Z,32.93
2022-11-27T02:36:40.775Z,33.47
2022-11-27T02:39:12.746Z,41.40
2022-11-27T02:41:54.208Z,36.00
2022-11-27T02:44:23.593Z,35.50
2022-11-27T02:46:50.386Z,36.17
2022-11-27T02:49:19.113Z,29.23
2022-11-27T02:51:51.473Z,33.50
2022-11-27T02:54:24.892Z,39.40
2022-11-27T02:56:53.726Z,32.77
2022-11-27T02:59:22.108Z,25.93
2022-11-27T03:01:53.781Z,29.73
2022-11-27T03:04:26.652Z,33.83
2022-11-27T03:06:57.814Z,30.80
2022-11-27T03:09:29.348Z,30.80
2022-11-27T03:11:56.188Z,29.30
2022-11-27T03:14:24.805Z,26.20
2022-11-27T03:17:11.625Z,30.87
2022-11-27T03:19:45.789Z,31.40
2022-11-27T03:22:12.830Z,29.00
2022-11-27T03:24:39.821Z,26.90
2022-11-27T03:27:06.816Z,34.23
2022-11-27T03:29:49.917Z,29.93
2022-11-27T03:32:16.903Z,25.53
2022-11-27T03:34:43.829Z,26.67
2022-11-27T03:37:10.519Z,38.73
2022-11-27T03:39:37.171Z,35.37
2022-11-27T03:42:26.653Z,36.87
2022-11-27T03:45:10.057Z,29.83
2022-11-27T03:48:05.224Z,29.77
2022-11-27T03:50:58.908Z,25.93
2022-11-27T03:53:44.498Z,26.63
2022-11-27T03:56:23.019Z,29.47
2022-11-27T03:58:56.184Z,30.93
2022-11-27T04:01:26.693Z,30.07
2022-11-27T04:03:53.455Z,37.77
2022-11-27T04:06:19.971Z,40.00
2022-11-27T04:08:47.523Z,36.20
2022-11-27T04:11:15.049Z,31.40
2022-11-27T04:13:41.574Z,31.63
2022-11-27T04:16:08.705Z,25.77
2022-11-27T04:18:35.400Z,35.60
2022-11-27T04:21:02.144Z,30.83
2022-11-27T04:23:28.556Z,34.43
2022-11-27T04:25:55.049Z,34.70
2022-11-27T04:28:21.548Z,35.13
2022-11-27T04:30:53.495Z,42.10
2022-11-27T04:33:20.000Z,40.73
2022-11-27T04:35:46.469Z,35.70
2022-11-27T04:38:13.090Z,33.13
2022-11-27T04:40:39.652Z,34.07
2022-11-27T04:43:06.709Z,28.93
2022-11-27T04:45:33.241Z,33.90
2022-11-27T04:47:59.864Z,28.33
2022-11-27T04:50:26.387Z,31.33
2022-11-27T04:52:52.876Z,29.57
2022-11-27T04:55:19.383Z,35.53
2022-11-27T04:57:45.842Z,34.60
2022-11-27T05:00:12.769Z,36.97
2022-11-27T05:02:40.181Z,36.67
2022-11-27T05:05:07.034Z,31.97
2022-11-27T05:07:33.621Z,33.50
2022-11-27T05:10:00.182Z,40.50
2022-11-27T05:12:26.719Z,38.47
2022-11-27T05:14:53.146Z,40.47
2022-11-27T05:17:19.655Z,31.27
2022-11-27T05:19:46.149Z,37.63
2022-11-27T05:22:12.593Z,35.07
2022-11-27T05:24:39.263Z,36.77
2022-11-27T05:27:05.954Z,45.03
2022-11-27T05:29:32.542Z,38.67
2022-11-27T05:31:58.953Z,53.73
2022-11-27T05:34:25.434Z,54.03
2022-11-27T05:36:51.890Z,41.47
2022-11-27T05:39:18.332Z,40.70
2022-11-27T05:41:44.789Z,34.40
2022-11-27T05:44:15.380Z,36.40
2022-11-27T05:46:45.312Z,35.03
2022-11-27T05:49:14.005Z,34.27
2022-11-27T05:51:40.941Z,41.93
2022-11-27T05:54:07.796Z,34.53
2022-11-27T05:56:34.267Z,32.57
2022-11-27T05:59:00.849Z,38.03
2022-11-27T06:01:27.440Z,34.83
2022-11-27T06:03:53.913Z,40.20
2022-11-27T06:06:21.170Z,33.57
2022-11-27T06:08:48.162Z,31.13
2022-11-27T06:11:20.341Z,30.27
2022-11-27T06:13:48.439Z,31.53
2022-11-27T06:16:23.461Z,35.27
2022-11-27T06:18:55.094Z,33.60
2022-11-27T06:21:23.130Z,28.23
2022-11-27T06:23:52.605Z,34.87
2022-11-27T06:26:25.149Z,33.87
2022-11-27T06:28:52.144Z,33.20
2022-11-27T06:31:21.581Z,38.43
2022-11-27T06:33:49.719Z,34.53
2022-11-27T06:36:18.049Z,31.27
2022-11-27T06:38:45.327Z,35.83
2022-11-27T06:41:15.218Z,34.33
2022-11-27T06:43:42.355Z,32.77
2022-11-27T06:46:16.164Z,35.23
2022-11-27T06:48:43.834Z,38.77
2022-11-27T06:51:12.688Z,35.70
2022-11-27T06:53:40.460Z,28.77
2022-11-27T06:56:10.022Z,36.13
2022-11-27T06:58:37.005Z,34.43
2022-11-27T07:01:06.460Z,32.10
2022-11-27T07:03:33.019Z,36.20
2022-11-27T07:06:00.587Z,33.53
2022-11-27T07:08:27.346Z,39.70
2022-11-27T07:10:53.808Z,37.97
2022-11-27T07:13:20.239Z,29.80
2022-11-27T07:15:46.697Z,32.20
2022-11-27T07:18:13.141Z,42.33
2022-11-27T07:20:39.613Z,31.20
2022-11-27T07:23:06.119Z,34.57
2022-11-27T07:25:32.562Z,36.13
2022-11-27T07:27:59.052Z,38.40
2022-11-27T07:30:25.477Z,32.77
2022-11-27T07:32:51.875Z,39.77
2022-11-27T07:35:18.561Z,33.23
2022-11-27T07:37:45.024Z,33.00
2022-11-27T07:40:12.438Z,35.57
2022-11-27T07:42:40.439Z,30.97
2022-11-27T07:45:08.656Z,33.73
2022-11-27T07:47:35.382Z,36.27
2022-11-27T07:50:01.987Z,31.97
2022-11-27T07:52:28.448Z,32.90
2022-11-27T07:54:54.874Z,27.13
2022-11-27T07:57:21.520Z,28.83
2022-11-27T07:59:48.206Z,33.47
2022-11-27T08:02:15.460Z,32.90
2022-11-27T08:04:42.302Z,27.87
2022-11-27T08:07:09.037Z,28.83
2022-11-27T08:09:35.590Z,27.57
2022-11-27T08:12:01.988Z,33.67
2022-11-27T08:14:28.445Z,28.37
2022-11-27T08:16:54.931Z,29.10
2022-11-27T08:19:21.946Z,25.40
2022-11-27T08:21:48.400Z,28.77
2022-11-27T08:24:14.935Z,27.03
2022-11-27T08:26:41.680Z,31.77
2022-11-27T08:29:11.815Z,29.93
2022-11-27T08:31:38.521Z,27.90
2022-11-27T08:34:05.808Z,21.23
2022-11-27T08:36:32.314Z,20.77
2022-11-27T08:38:58.796Z,22.83
2022-11-27T08:41:25.296Z,23.63
2022-11-27T08:43:51.796Z,20.13
2022-11-27T08:46:18.361Z,18.90
2022-11-27T08:48:44.903Z,21.77
2022-11-27T08:51:14.196Z,25.67
2022-11-27T08:53:41.555Z,17.87
2022-11-27T08:56:24.865Z,20.73
2022-11-27T08:58:52.080Z,23.40
2022-11-27T09:01:27.167Z,22.50
2022-11-27T09:03:53.976Z,21.30
2022-11-27T09:06:23.947Z,20.07
2022-11-27T09:08:50.791Z,20.37
2022-11-27T09:11:19.937Z,15.43
2022-11-27T09:13:47.111Z,20.63
2022-11-27T09:16:16.234Z,19.97
2022-11-27T09:18:51.668Z,14.97
2022-11-27T09:21:20.743Z,20.47
2022-11-27T09:23:47.359Z,18.63
2022-11-27T09:26:16.411Z,32.20
2022-11-27T09:28:44.005Z,24.33
2022-11-27T09:31:12.928Z,21.57
2022-11-27T09:33:40.941Z,17.20
2022-11-27T09:36:10.380Z,17.23
2022-11-27T09:38:38.071Z,17.77
2022-11-27T09:41:10.466Z,19.47
2022-11-27T09:43:45.264Z,17.90
2022-11-27T09:46:21.551Z,18.97
2022-11-27T09:48:51.339Z,21.03
2022-11-27T09:51:32.176Z,16.90
2022-11-27T09:54:06.719Z,17.33
2022-11-27T09:56:36.471Z,16.50
2022-11-27T09:59:08.921Z,17.37
2022-11-27T10:01:44.252Z,16.83
2022-11-27T10:04:17.647Z,17.77
2022-11-27T10:06:49.985Z,16.20
2022-11-27T10:09:34.468Z,19.23
2022-11-27T10:12:30.299Z,19.17
2022-11-27T10:15:09.782Z,14.67
2022-11-27T10:17:36.156Z,18.17
2022-11-27T10:20:18.822Z,17.40
2022-11-27T10:22:57.393Z,18.77
2022-11-27T10:25:36.675Z,16.43
2022-11-27T10:28:11.985Z,20.47
2022-11-27T10:30:44.009Z,14.77
2022-11-27T10:33:18.922Z,22.70
2022-11-27T10:35:49.337Z,22.53
2022-11-27T10:38:28.174Z,21.73
2022-11-27T10:41:09.852Z,19.70
2022-11-27T10:43:38.774Z,17.43
2022-11-27T10:46:20.179Z,20.83
2022-11-27T10:48:46.696Z,18.07
2022-11-27T10:51:25.910Z,18.93
2022-11-27T10:53:54.658Z,20.40
2022-11-27T10:56:58.595Z,19.33
2022-11-27T10:59:34.863Z,17.20
2022-11-27T11:02:03.428Z,14.83
2022-11-27T11:04:39.208Z,15.43
2022-11-27T11:07:25.035Z,18.77
2022-11-27T11:09:52.003Z,21.03
2022-11-27T11:12:21.614Z,18.33
2022-11-27T11:14:55.596Z,18.13
2022-11-27T11:17:35.164Z,18.07
2022-11-27T11:20:18.999Z,16.77
2022-11-27T11:22:47.490Z,20.70
2022-11-27T11:25:19.196Z,18.50
2022-11-27T11:27:47.726Z,12.73
2022-11-27T11:30:23.652Z,18.87
2022-11-27T11:32:51.851Z,25.53
2022-11-27T11:35:29.095Z,19.97
2022-11-27T11:37:57.401Z,18.83
2022-11-27T11:40:30.196Z,12.27
2022-11-27T11:42:59.040Z,17.67
2022-11-27T11:45:32.820Z,14.77
2022-11-27T11:48:02.322Z,16.67
2022-11-27T11:50:42.538Z,19.10
2022-11-27T11:53:22.691Z,18.87
2022-11-27T11:55:49.147Z,17.63
2022-11-27T11:58:33.897Z,15.77
2022-11-27T12:01:27.607Z,20.27
2022-11-27T12:04:12.433Z,22.13
2022-11-27T12:06:45.299Z,17.07
2022-11-27T12:09:37.640Z,16.40
2022-11-27T12:12:17.703Z,14.23
2022-11-27T12:14:56.704Z,20.47
2022-11-27T12:17:51.482Z,13.33
2022-11-27T12:20:47.265Z,20.33
2022-11-27T12:23:41.148Z,16.83
2022-11-27T12:26:32.856Z,16.03
2022-11-27T12:28:59.712Z,15.67
2022-11-27T12:32:03.946Z,13.40
2022-11-27T12:34:42.736Z,17.57
2022-11-27T12:37:18.170Z,57.20
2022-11-27T12:40:04.571Z,20.93
2022-11-27T12:42:50.566Z,11.60
2022-11-27T12:45:39.347Z,12.63
2022-11-27T12:48:15.794Z,14.17
2022-11-27T12:50:54.007Z,13.80
2022-11-27T12:53:31.521Z,17.07
2022-11-27T12:56:06.909Z,18.03
2022-11-27T12:58:39.463Z,18.47
2022-11-27T13:01:11.575Z,15.63
2022-11-27T13:03:51.640Z,18.43
2022-11-27T13:06:22.117Z,17.67
2022-11-27T13:08:59.885Z,16.00
2022-11-27T13:11:32.521Z,15.33
2022-11-27T13:14:20.517Z,15.37
2022-11-27T13:16:57.579Z,18.27
2022-11-27T13:19:32.741Z,15.40
2022-11-27T13:22:03.395Z,16.23
2022-11-27T13:24:30.124Z,14.47
2022-11-27T13:27:10.154Z,12.83
2022-11-27T13:30:07.494Z,18.40
2022-11-27T13:32:37.338Z,13.00
2022-11-27T13:35:17.175Z,18.13
2022-11-27T13:37:45.247Z,18.00
2022-11-27T13:40:24.054Z,15.53
2022-11-27T13:42:55.778Z,15.73
2022-11-27T13:45:42.855Z,13.10
2022-11-27T13:48:32.329Z,13.57
2022-11-27T13:50:59.521Z,18.23
2022-11-27T13:53:37.862Z,17.37
2022-11-27T13:56:06.162Z,18.37
2022-11-27T13:58:38.531Z,16.73
2022-11-27T14:01:31.298Z,11.67
2022-11-27T14:04:08.574Z,12.33
2022-11-27T14:06:35.998Z,14.37
2022-11-27T14:09:05.781Z,14.43
2022-11-27T14:11:44.844Z,17.77
2022-11-27T14:14:24.018Z,15.10
2022-11-27T14:17:09.173Z,18.47
2022-11-27T14:19:45.329Z,17.10
2022-11-27T14:22:44.228Z,14.03
2022-11-27T14:25:32.428Z,15.37
2022-11-27T14:28:03.599Z,14.17
2022-11-27T14:30:40.269Z,14.73
2022-11-27T14:33:26.296Z,16.13
2022-11-27T14:35:58.402Z,12.63
2022-11-27T14:38:26.993Z,15.33
2022-11-27T14:40:55.115Z,15.23
2022-11-27T14:43:28.521Z,13.50
2022-11-27T14:45:58.895Z,17.13
2022-11-27T14:48:41.482Z,16.10
2022-11-27T14:51:15.267Z,16.07
2022-11-27T14:53:42.450Z,13.20
2022-11-27T14:56:09.440Z,15.93
2022-11-27T14:58:38.017Z,13.00
2022-11-27T15:01:07.414Z,12.07
2022-11-27T15:03:34.434Z,17.03
2022-11-27T15:06:06.851Z,14.13
2022-11-27T15:08:35.885Z,14.73
2022-11-27T15:11:04.919Z,14.97
2022-11-27T15:13:34.804Z,17.63
2022-11-27T15:16:18.014Z,18.30
2022-11-27T15:18:50.459Z,18.57
2022-11-27T15:21:20.386Z,16.73
2022-11-27T15:23:49.824Z,19.37
2022-11-27T15:26:31.117Z,21.37
2022-11-27T15:28:58.468Z,18.27
2022-11-27T15:31:34.584Z,17.37
2022-11-27T15:34:14.492Z,15.37
2022-11-27T15:36:43.668Z,19.27
2022-11-27T15:39:36.025Z,16.57
2022-11-27T15:42:04.869Z,19.83
2022-11-27T15:44:32.542Z,15.70
2022-11-27T15:47:01.546Z,13.97
2022-11-27T15:49:28.625Z,16.63
2022-11-27T15:51:56.810Z,13.43
2022-11-27T15:54:23.763Z,19.57
2022-11-27T15:56:50.558Z,15.80
2022-11-27T15:59:20.565Z,15.70
2022-11-27T16:01:47.447Z,15.70
2022-11-27T16:04:13.981Z,15.07
2022-11-27T16:06:40.489Z,13.50
2022-11-27T16:09:06.952Z,15.17
2022-11-27T16:11:33.409Z,13.30
2022-11-27T16:13:59.982Z,17.23
2022-11-27T16:16:27.059Z,17.70
2022-11-27T16:18:57.097Z,12.10
2022-11-27T16:21:29.257Z,16.87
2022-11-27T16:23:58.345Z,12.40
2022-11-27T16:26:25.125Z,15.33
2022-11-27T16:28:51.673Z,15.17
2022-11-27T16:31:18.407Z,18.27
2022-11-27T16:33:44.964Z,15.77
2022-11-27T16:36:14.564Z,16.87
2022-11-27T16:38:41.876Z,16.33
2022-11-27T16:41:11.078Z,15.03
2022-11-27T16:43:43.467Z,12.87
2022-11-27T16:46:14.156Z,17.90
2022-11-27T16:48:42.985Z,16.83
2022-11-27T16:51:13.031Z,14.80
2022-11-27T16:53:41.423Z,14.43
2022-11-27T16:56:09.397Z,13.57
2022-11-27T16:58:37.760Z,11.03
2022-11-27T17:01:05.706Z,16.40
2022-11-27T17:03:32.355Z,12.90
2022-11-27T17:05:58.839Z,14.90
2022-11-27T17:08:25.790Z,15.07
2022-11-27T17:10:53.061Z,16.03
2022-11-27T17:13:19.650Z,17.53
2022-11-27T17:15:46.060Z,16.47
2022-11-27T17:18:12.499Z,17.73
2022-11-27T17:20:38.966Z,45.27
2022-11-27T17:23:05.385Z,19.60
2022-11-27T17:25:31.974Z,14.90
2022-11-27T17:27:58.751Z,15.20
2022-11-27T17:30:25.277Z,15.23
2022-11-27T17:32:51.751Z,16.00
2022-11-27T17:35:18.216Z,15.57
2022-11-27T17:37:45.465Z,17.57
2022-11-27T17:40:12.607Z,14.07
2022-11-27T17:42:39.109Z,15.30
2022-11-27T17:45:06.062Z,15.90
2022-11-27T17:47:34.140Z,17.57
2022-11-27T17:50:00.795Z,15.13
2022-11-27T17:52:27.441Z,18.70
2022-11-27T17:54:53.864Z,18.30
2022-11-27T17:57:20.393Z,18.17
2022-11-27T17:59:46.895Z,16.03
2022-11-27T18:02:13.590Z,16.80
2022-11-27T18:04:41.046Z,17.70
2022-11-27T18:07:07.465Z,17.67
2022-11-27T18:09:33.941Z,18.43
2022-11-27T18:12:00.406Z,22.73
2022-11-27T18:14:26.881Z,17.27
2022-11-27T18:16:53.654Z,25.00
2022-11-27T18:19:20.533Z,44.13
2022-11-27T18:21:47.042Z,26.37
2022-11-27T18:24:28.949Z,19.17
2022-11-27T18:27:11.334Z,15.77
2022-11-27T18:29:40.559Z,19.83
2022-11-27T18:32:07.624Z,16.53
2022-11-27T18:34:34.569Z,18.93
2022-11-27T18:37:01.096Z,19.33
2022-11-27T18:39:28.071Z,21.60
2022-11-27T18:41:54.572Z,21.80
2022-11-27T18:44:20.992Z,17.50
2022-11-27T18:46:47.514Z,19.47
2022-11-27T18:49:13.934Z,18.13
2022-11-27T18:51:40.706Z,23.03
2022-11-27T18:54:07.236Z,18.43
2022-11-27T18:56:33.666Z,17.10
2022-11-27T18:59:05.024Z,22.03
2022-11-27T19:01:40.872Z,19.63
2022-11-27T19:04:09.114Z,18.97
2022-11-27T19:06:37.437Z,18.03
2022-11-27T19:09:04.757Z,19.90
2022-11-27T19:11:32.813Z,20.13
2022-11-27T19:13:59.850Z,22.90
2022-11-27T19:16:32.734Z,43.73
2022-11-27T19:19:00.258Z,21.53
2022-11-27T19:21:28.927Z,18.10
2022-11-27T19:23:58.216Z,19.97
2022-11-27T19:26:28.354Z,18.40
2022-11-27T19:28:57.018Z,21.43
2022-11-27T19:31:25.153Z,18.90
2022-11-27T19:33:53.113Z,16.53
2022-11-27T19:36:20.367Z,18.77
2022-11-27T19:38:46.912Z,17.70
2022-11-27T19:41:17.353Z,21.37
2022-11-27T19:43:44.860Z,18.83
2022-11-27T19:46:23.644Z,19.70
2022-11-27T19:48:51.167Z,15.20
2022-11-27T19:51:17.578Z,16.27
2022-11-27T19:53:44.052Z,17.83
2022-11-27T19:56:11.147Z,16.93
2022-11-27T19:58:37.954Z,19.33
2022-11-27T20:01:16.155Z,17.47
2022-11-27T20:03:43.491Z,19.53
2022-11-27T20:06:14.382Z,21.50
2022-11-27T20:08:41.564Z,22.23
2022-11-27T20:11:11.031Z,16.47
2022-11-27T20:13:38.028Z,18.77
2022-11-27T20:16:12.427Z,15.23
2022-11-27T20:18:39.287Z,15.87
2022-11-27T20:21:11.504Z,15.73
2022-11-27T20:23:39.081Z,17.97
2022-11-27T20:26:11.272Z,17.33
2022-11-27T20:28:41.556Z,12.93
2022-11-27T20:31:13.849Z,17.00
2022-11-27T20:33:40.382Z,16.77
2022-11-27T20:36:14.428Z,19.67
2022-11-27T20:38:41.340Z,15.80
2022-11-27T20:41:09.820Z,34.17
2022-11-27T20:43:37.159Z,35.00
2022-11-27T20:46:04.687Z,20.23
2022-11-27T20:48:31.609Z,26.10
2022-11-27T20:51:08.509Z,18.70
2022-11-27T20:53:35.458Z,21.63
2022-11-27T20:56:06.342Z,17.80
2022-11-27T20:58:34.627Z,17.80
2022-11-27T21:01:01.220Z,20.37
2022-11-27T21:03:29.121Z,20.63
2022-11-27T21:05:55.895Z,17.10
2022-11-27T21:08:22.737Z,19.80
2022-11-27T21:10:50.471Z,17.53
2022-11-27T21:13:17.319Z,23.20
2022-11-27T21:15:47.742Z,23.90
2022-11-27T21:18:14.758Z,19.67
2022-11-27T21:20:42.396Z,16.43
2022-11-27T21:23:08.995Z,21.10
2022-11-27T21:25:37.804Z,16.07
2022-11-27T21:28:04.644Z,20.13
2022-11-27T21:30:31.305Z,26.37
2022-11-27T21:32:57.743Z,23.40
2022-11-27T21:35:28.719Z,17.67
2022-11-27T21:37:58.095Z,17.63
2022-11-27T21:40:24.513Z,15.43
2022-11-27T21:42:52.114Z,15.40
2022-11-27T21:45:18.575Z,19.73
2022-11-27T21:47:45.034Z,22.10
2022-11-27T21:50:13.221Z,22.13
2022-11-27T21:52:39.645Z,15.67
2022-11-27T21:55:11.625Z,16.53
2022-11-27T21:57:38.657Z,17.87
2022-11-27T22:00:06.085Z,22.07
2022-11-27T22:02:32.595Z,16.80
2022-11-27T22:04:59.092Z,18.90
2022-11-27T22:07:25.597Z,18.17
2022-11-27T22:09:52.166Z,19.43
2022-11-27T22:12:18.787Z,19.90
2022-11-27T22:14:45.394Z,15.30
2022-11-27T22:17:11.867Z,22.70
2022-11-27T22:19:42.301Z,17.73
2022-11-27T22:22:08.791Z,19.53
2022-11-27T22:24:35.477Z,17.93
2022-11-27T22:27:02.214Z,18.50
2022-11-27T22:29:28.673Z,21.30
2022-11-27T22:31:55.120Z,18.23
2022-11-27T22:34:21.648Z,15.30
2022-11-27T22:36:48.106Z,18.30
2022-11-27T22:39:15.166Z,15.20
2022-11-27T22:41:42.451Z,16.03
2022-11-27T22:44:14.182Z,22.17
2022-11-27T22:46:41.507Z,16.27
2022-11-27T22:49:14.316Z,17.37
2022-11-27T22:51:41.599Z,17.17
2022-11-27T22:54:10.900Z,21.50
2022-11-27T22:56:37.464Z,18.97
2022-11-27T22:59:31.193Z,21.50
2022-11-27T23:01:52.454Z,18.03
2022-11-27T23:04:18.895Z,17.20
2022-11-27T23:06:48.283Z,15.77
2022-11-27T23:09:16.285Z,22.27
2022-11-27T23:11:42.807Z,18.47
2022-11-27T23:14:09.230Z,18.57
2022-11-27T23:16:35.865Z,18.70
2022-11-27T23:19:02.303Z,16.47
2022-11-27T23:21:28.752Z,16.43
2022-11-27T23:23:55.217Z,19.03
2022-11-27T23:26:24.051Z,17.53
2022-11-27T23:28:52.203Z,16.90
2022-11-27T23:31:29.974Z,16.63
2022-11-27T23:33:57.970Z,19.00
2022-11-27T23:36:24.454Z,14.30
2022-11-27T23:38:50.925Z,18.40
2022-11-27T23:41:20.004Z,19.70
2022-11-27T23:43:46.718Z,19.40
2022-11-27T23:46:15.566Z,14.23
2022-11-27T23:48:42.781Z,16.57
2022-11-27T23:51:10.848Z,14.63
2022-11-27T23:53:37.962Z,13.03
2022-11-27T23:56:08.258Z,16.00
2022-11-27T23:58:34.994Z,14.53
